Time;durP1;ratioP1;P1;durP2;ratioP2;P2;SDS_P1;SDS_P2;PMS_P1;PMS_P2;Temp;Humidity;BMP_temperature;BMP_pressure;BME280_temperature;BME280_humidity;BME280_pressure;Samples;Min_cycle;Max_cycle;Signal;HPM_P1;HPM_P2
2023/10/19 00:02:19;;;;;;;36.50;20.10;;;;;;;4.40;100.00;99953.17;213710;1293;140588;-82
2023/10/19 00:07:19;;;;;;;38.40;19.60;;;;;;;4.42;100.00;99942.88;214103;1292;139858;-82
2023/10/19 00:12:22;;;;;;;38.40;21.70;;;;;;;4.42;100.00;99928.17;213379;1292;142708;-82
2023/10/19 00:17:23;;;;;;;38.20;21.40;;;;;;;4.44;100.00;99916.38;214319;1288;96685;-81
2023/10/19 00:22:24;;;;;;;38.70;20.80;;;;;;;4.48;100.00;99910.50;213553;1288;140092;-81
2023/10/19 00:27:27;;;;;;;42.70;22.10;;;;;;;4.49;100.00;99899.40;213786;1289;138994;-81
2023/10/19 00:32:29;;;;;;;42.90;21.50;;;;;;;4.51;100.00;99887.23;213487;1288;140247;-81
2023/10/19 00:37:32;;;;;;;46.60;22.40;;;;;;;4.53;100.00;99873.80;214103;1288;138393;-81
2023/10/19 00:42:38;;;;;;;46.00;23.30;;;;;;;4.52;100.00;99863.83;213554;1288;140489;-81
2023/10/19 00:47:42;;;;;;;43.80;23.60;;;;;;;4.54;100.00;99855.86;214217;1287;105753;-81
2023/10/19 00:52:49;;;;;;;45.30;23.70;;;;;;;4.54;100.00;99847.45;213671;1291;139694;-81
2023/10/19 00:57:52;;;;;;;45.70;23.70;;;;;;;4.54;100.00;99843.48;214225;1288;139493;-81
2023/10/19 01:02:59;;;;;;;44.00;22.60;;;;;;;4.54;100.00;99839.89;213594;1288;139431;-81
2023/10/19 01:08:02;;;;;;;42.40;23.10;;;;;;;4.51;100.00;99826.81;214511;1288;139590;-82
2023/10/19 01:13:05;;;;;;;45.40;24.00;;;;;;;4.52;100.00;99817.48;213355;1288;140085;-81
2023/10/19 01:18:10;;;;;;;40.70;23.40;;;;;;;4.52;100.00;99797.80;214124;1288;138907;-82
2023/10/19 01:23:27;;;;;;;41.70;21.20;;;;;;;4.52;100.00;99786.52;213434;1291;140008;-81
2023/10/19 01:28:42;;;;;;;42.20;22.50;;;;;;;4.52;100.00;99780.14;213762;1289;138418;-82
2023/10/19 01:33:44;;;;;;;44.00;24.10;;;;;;;4.53;100.00;99766.08;213477;1288;139845;-83
2023/10/19 01:38:44;;;;;;;43.80;23.30;;;;;;;4.55;100.00;99754.60;214304;1289;139039;-81
2023/10/19 01:43:49;;;;;;;39.30;21.00;;;;;;;4.55;100.00;99744.17;213791;1291;139461;-81
2023/10/19 01:48:54;;;;;;;42.50;21.50;;;;;;;4.57;100.00;99735.56;214056;1288;138798;-81
2023/10/19 01:53:56;;;;;;;41.90;21.40;;;;;;;4.59;100.00;99728.45;213782;1288;139902;-81
2023/10/19 01:58:58;;;;;;;41.00;21.00;;;;;;;4.61;100.00;99720.16;214182;1291;138665;-81
2023/10/19 02:04:00;;;;;;;36.80;21.20;;;;;;;4.61;100.00;99710.84;213907;1288;140200;-82
2023/10/19 02:14:30;;;;;;;37.10;19.90;;;;;;;4.59;100.00;99689.47;213607;1288;389296;-83
2023/10/19 02:19:30;;;;;;;40.60;21.00;;;;;;;4.62;100.00;99677.92;213614;1288;139959;-82
2023/10/19 02:24:32;;;;;;;34.70;19.00;;;;;;;4.64;100.00;99676.64;213955;1288;138993;-82
2023/10/19 02:29:32;;;;;;;35.60;19.40;;;;;;;4.65;100.00;99671.76;213672;1291;139317;-81
2023/10/19 02:34:34;;;;;;;37.40;18.90;;;;;;;4.68;100.00;99661.92;214037;1288;138689;-82
2023/10/19 02:39:35;;;;;;;38.30;19.90;;;;;;;4.72;100.00;99655.49;213426;1288;139320;-82
2023/10/19 02:44:37;;;;;;;36.70;19.30;;;;;;;4.75;100.00;99650.25;213942;1288;138664;-82
2023/10/19 02:49:39;;;;;;;38.10;19.80;;;;;;;4.77;100.00;99641.02;214615;1288;140485;-82
2023/10/19 02:54:40;;;;;;;38.10;19.50;;;;;;;4.79;100.00;99642.09;214093;1289;138875;-82
2023/10/19 02:59:40;;;;;;;42.30;21.90;;;;;;;4.80;100.00;99634.71;213614;1288;140001;-82
2023/10/19 03:04:42;;;;;;;38.70;20.50;;;;;;;4.80;100.00;99627.55;214138;1288;138626;-83
2023/10/19 03:09:48;;;;;;;40.50;20.30;;;;;;;4.79;100.00;99635.32;213632;1288;140232;-82
2023/10/19 03:14:49;;;;;;;36.70;19.30;;;;;;;4.78;100.00;99638.95;214195;1289;138786;-82
2023/10/19 03:19:49;;;;;;;35.40;19.30;;;;;;;4.77;100.00;99632.09;213902;1288;140591;-82
2023/10/19 03:24:59;;;;;;;34.30;18.90;;;;;;;4.76;100.00;99625.44;214162;1288;138462;-82
2023/10/19 03:30:00;;;;;;;34.10;20.00;;;;;;;4.76;100.00;99615.85;213886;1288;140547;-83
2023/10/19 03:35:01;;;;;;;39.30;20.40;;;;;;;4.79;100.00;99588.02;214305;1288;138008;-83
2023/10/19 03:40:07;;;;;;;37.10;20.30;;;;;;;4.82;100.00;99578.98;213547;1288;139574;-82
2023/10/19 03:45:13;;;;;;;41.30;20.30;;;;;;;4.85;100.00;99566.59;214124;1288;138294;-83
2023/10/19 03:50:20;;;;;;;43.80;21.10;;;;;;;4.88;100.00;99560.74;213540;1288;140251;-82
2023/10/19 03:55:22;;;;;;;37.40;19.70;;;;;;;4.90;100.00;99554.52;214093;1291;139140;-82
2023/10/19 04:00:28;;;;;;;38.00;21.60;;;;;;;4.90;100.00;99554.05;213598;1288;140855;-82
2023/10/19 04:05:28;;;;;;;34.00;19.20;;;;;;;4.90;100.00;99551.42;214195;1291;111318;-82
2023/10/19 04:15:35;;;;;;;42.70;21.40;;;;;;;4.93;100.00;99533.72;214284;1288;138350;-83
2023/10/19 04:20:58;;;;;;;35.80;20.60;;;;;;;4.94;100.00;99528.44;213489;1287;139925;-82
2023/10/19 04:25:58;;;;;;;35.80;20.80;;;;;;;4.98;100.00;99520.17;214442;1288;138341;-82
2023/10/19 04:31:02;;;;;;;41.20;22.40;;;;;;;5.02;100.00;99514.25;214217;1288;139591;-83
2023/10/19 04:36:03;;;;;;;42.60;22.20;;;;;;;5.05;100.00;99513.28;214996;1288;96612;-82
2023/10/19 04:41:07;;;;;;;43.50;24.80;;;;;;;5.05;100.00;99511.98;213891;1291;139140;-81
2023/10/19 04:46:11;;;;;;;39.20;21.80;;;;;;;5.07;100.00;99500.48;214961;1291;138896;-82
2023/10/19 04:51:12;;;;;;;38.60;21.70;;;;;;;5.08;100.00;99483.98;214303;1289;139743;-83
2023/10/19 04:56:12;;;;;;;42.70;21.60;;;;;;;5.09;100.00;99482.85;214911;1288;139094;-82
2023/10/19 05:01:14;;;;;;;41.20;22.70;;;;;;;5.10;100.00;99477.79;213891;1288;139777;-82
2023/10/19 05:06:15;;;;;;;43.10;22.90;;;;;;;5.11;100.00;99471.02;214431;1288;139649;-81
2023/10/19 05:11:15;;;;;;;37.10;22.00;;;;;;;5.12;100.00;99466.84;213843;1291;139772;-81
2023/10/19 05:16:15;;;;;;;42.40;22.30;;;;;;;5.12;100.00;99463.95;214274;1288;138708;-82
2023/10/19 05:21:16;;;;;;;36.60;21.70;;;;;;;5.11;100.00;99464.41;213526;1291;140916;-82
2023/10/19 05:26:16;;;;;;;44.60;21.80;;;;;;;5.12;100.00;99460.52;214174;1288;139256;-82
2023/10/19 05:31:17;;;;;;;45.80;23.90;;;;;;;5.13;100.00;99448.77;213687;1288;139860;-81
2023/10/19 05:36:17;;;;;;;39.00;21.10;;;;;;;5.15;100.00;99457.67;214266;1289;138959;-82
2023/10/19 05:41:21;;;;;;;43.30;22.40;;;;;;;5.18;100.00;99465.14;213623;1291;139710;-83
2023/10/19 05:46:24;;;;;;;42.10;22.40;;;;;;;5.19;100.00;99466.95;214239;1288;139605;-87
2023/10/19 05:51:25;;;;;;;47.00;23.70;;;;;;;5.21;100.00;99466.45;213781;1288;139665;-86
2023/10/19 05:56:25;;;;;;;44.70;22.80;;;;;;;5.24;100.00;99467.27;214261;1288;139041;-87
2023/10/19 06:01:26;;;;;;;42.00;23.20;;;;;;;5.26;100.00;99473.63;214431;1288;140181;-86
2023/10/19 06:06:26;;;;;;;37.20;21.40;;;;;;;5.30;100.00;99484.05;215096;1291;139086;-86
2023/10/19 06:11:32;;;;;;;40.50;22.50;;;;;;;5.36;100.00;99486.80;214486;1288;139532;-87
2023/10/19 06:16:34;;;;;;;38.80;22.90;;;;;;;5.40;100.00;99483.90;215065;1291;139089;-86
2023/10/19 06:21:34;;;;;;;42.50;22.30;;;;;;;5.46;100.00;99481.36;214458;1290;139795;-86
2023/10/19 06:26:36;;;;;;;43.70;22.60;;;;;;;5.52;100.00;99481.52;214878;1289;138869;-85
2023/10/19 06:31:37;;;;;;;41.00;23.70;;;;;;;5.59;100.00;99475.79;213933;1289;140148;-87
2023/10/19 06:36:37;;;;;;;41.10;22.60;;;;;;;5.64;100.00;99470.02;214190;1288;138975;-88
2023/10/19 06:41:39;;;;;;;43.00;22.80;;;;;;;5.70;99.73;99467.63;214091;1291;139434;-86
2023/10/19 06:46:39;;;;;;;39.80;22.30;;;;;;;5.76;99.75;99468.56;214212;1289;138009;-88
2023/10/19 06:51:40;;;;;;;42.10;23.50;;;;;;;5.80;99.77;99461.85;213478;1288;198108;-87
2023/10/19 06:56:41;;;;;;;38.10;21.70;;;;;;;5.85;99.54;99460.61;214321;1288;138599;-88
2023/10/19 07:01:42;;;;;;;37.90;22.00;;;;;;;5.90;99.53;99451.39;213718;1288;140031;-87
2023/10/19 07:06:42;;;;;;;43.20;22.80;;;;;;;5.95;99.53;99435.86;214213;1288;138699;-87
2023/10/19 07:11:44;;;;;;;46.90;23.10;;;;;;;6.03;99.33;99422.94;213977;1288;139963;-87
2023/10/19 07:16:45;;;;;;;43.00;22.30;;;;;;;6.12;99.02;99412.98;214252;1288;139183;-88
2023/10/19 07:21:48;;;;;;;42.20;20.90;;;;;;;6.22;98.62;99400.38;213827;1288;139123;-86
2023/10/19 07:27:04;;;;;;;46.70;22.70;;;;;;;6.33;98.71;99396.92;214246;1288;138189;-88
2023/10/19 07:32:05;;;;;;;42.90;22.40;;;;;;;6.45;98.03;99384.80;213788;1289;139339;-87
2023/10/19 07:37:07;;;;;;;37.90;20.00;;;;;;;6.55;97.72;99376.55;214438;1289;138282;-82
2023/10/19 07:42:07;;;;;;;37.90;19.40;;;;;;;6.66;97.40;99372.36;214746;1288;143244;-87
2023/10/19 07:47:09;;;;;;;38.30;19.80;;;;;;;6.78;97.18;99361.23;214638;1288;96618;-88
2023/10/19 07:52:14;;;;;;;35.30;19.40;;;;;;;6.90;96.79;99354.85;213776;1289;139088;-87
2023/10/19 07:57:15;;;;;;;37.00;18.40;;;;;;;7.01;96.21;99344.86;214466;1291;138144;-87
2023/10/19 08:02:16;;;;;;;36.70;18.10;;;;;;;7.12;95.76;99342.67;213925;1288;139480;-88
2023/10/19 08:07:17;;;;;;;32.10;18.80;;;;;;;7.23;95.15;99342.21;214518;1289;138302;-88
2023/10/19 08:12:17;;;;;;;31.30;17.20;;;;;;;7.34;94.86;99337.98;213902;1288;139389;-87
2023/10/19 08:17:18;;;;;;;32.10;17.30;;;;;;;7.44;94.23;99333.11;214624;1288;97624;-89
2023/10/19 08:22:19;;;;;;;36.80;18.20;;;;;;;7.54;93.95;99332.86;213876;1289;139188;-88
2023/10/19 08:27:19;;;;;;;36.80;18.70;;;;;;;7.64;93.30;99326.02;214602;1291;138404;-87
2023/10/19 08:32:20;;;;;;;34.80;17.50;;;;;;;7.74;93.02;99332.17;213848;1288;139627;-88
2023/10/19 08:37:20;;;;;;;32.40;18.00;;;;;;;7.84;92.46;99343.89;214373;1289;138112;-89
2023/10/19 08:42:21;;;;;;;31.50;16.90;;;;;;;7.93;92.14;99340.01;213932;1289;140221;-89
2023/10/19 08:47:25;;;;;;;36.40;17.90;;;;;;;8.03;92.05;99339.58;214360;1289;96724;-89
2023/10/19 08:52:27;;;;;;;31.50;18.30;;;;;;;8.13;91.42;99328.18;213777;1291;139361;-90
2023/10/19 08:57:28;;;;;;;35.90;19.10;;;;;;;8.24;91.82;99319.08;214365;1286;139195;-89
2023/10/19 09:02:29;;;;;;;36.00;18.80;;;;;;;8.36;91.20;99319.89;213861;1289;140127;-88
2023/10/19 09:07:30;;;;;;;37.70;20.30;;;;;;;8.49;91.12;99314.90;215954;1291;138339;-88
2023/10/19 09:12:31;;;;;;;38.30;18.90;;;;;;;8.62;90.05;99305.36;214009;1291;139381;-89
2023/10/19 09:17:31;;;;;;;35.40;18.90;;;;;;;8.74;89.68;99296.36;214435;1291;97227;-87
2023/10/19 09:22:36;;;;;;;33.90;19.70;;;;;;;8.84;89.43;99280.91;214013;1291;138958;-88
2023/10/19 09:27:37;;;;;;;38.90;16.30;;;;;;;8.91;87.97;99266.57;214183;1288;138421;-86
2023/10/19 09:32:39;;;;;;;32.10;17.40;;;;;;;8.95;87.83;99250.48;213802;1288;141086;-87
2023/10/19 09:37:39;;;;;;;39.20;19.90;;;;;;;9.01;88.02;99225.39;214471;1288;138477;-87
2023/10/19 09:42:48;;;;;;;33.70;17.40;;;;;;;9.06;87.36;99232.27;213630;1291;139012;-88
2023/10/19 09:47:50;;;;;;;33.50;18.60;;;;;;;9.14;87.17;99256.88;214288;1288;108991;-87
2023/10/19 09:52:51;;;;;;;34.00;17.40;;;;;;;9.20;86.36;99247.30;213866;1289;140198;-87
2023/10/19 09:57:55;;;;;;;28.90;16.50;;;;;;;9.28;86.49;99252.39;214434;1291;139157;-86
2023/10/19 10:02:55;;;;;;;33.10;16.80;;;;;;;9.29;85.37;99248.70;213792;1291;207201;-86
2023/10/19 10:08:26;;;;;;;28.80;15.80;;;;;;;9.28;84.43;99251.13;214340;1291;138141;-85
2023/10/19 10:13:27;;;;;;;29.00;15.60;;;;;;;9.28;84.15;99249.48;213804;1289;139629;-85
2023/10/19 10:18:31;;;;;;;27.80;16.10;;;;;;;9.29;83.92;99238.89;214379;1291;138433;-85
2023/10/19 10:23:32;;;;;;;33.00;17.00;;;;;;;9.31;84.26;99235.13;213716;1292;139377;-86
2023/10/19 10:28:32;;;;;;;36.90;16.70;;;;;;;9.35;84.00;99227.81;214334;1293;138220;-85
2023/10/19 10:33:49;;;;;;;28.00;14.40;;;;;;;9.38;83.91;99227.42;214915;1291;139115;-86
2023/10/19 10:38:50;;;;;;;;;;;;;;;9.37;83.13;99223.73;214374;1288;139891;-87
2023/10/19 10:43:58;;;;;;;25.00;13.70;;;;;;;9.37;82.97;99216.73;213893;1288;126336;-87
2023/10/19 10:48:58;;;;;;;24.40;14.30;;;;;;;9.40;83.36;99202.38;214187;1291;138406;-87
2023/10/19 10:53:59;;;;;;;28.60;15.40;;;;;;;9.41;82.76;99191.39;213978;1288;139117;-87
2023/10/19 10:58:59;;;;;;;31.70;15.70;;;;;;;9.37;82.04;99188.19;214313;1289;138418;-86
2023/10/19 11:04:15;;;;;;;27.80;15.70;;;;;;;9.34;82.06;99174.00;213772;1291;139593;-87
2023/10/19 11:09:19;;;;;;;30.20;14.30;;;;;;;9.34;82.59;99148.44;213715;1291;139685;-86
2023/10/19 11:14:21;;;;;;;28.30;15.40;;;;;;;9.34;82.41;99141.54;214599;1289;141239;-88
2023/10/19 11:19:37;;;;;;;29.60;15.80;;;;;;;9.38;82.49;99139.63;213882;1289;141411;-88
2023/10/19 11:24:40;;;;;;;26.00;14.60;;;;;;;9.41;82.87;99155.29;214381;1291;138578;-84
2023/10/19 11:29:54;;;;;;;29.40;16.80;;;;;;;9.42;82.40;99147.84;213686;1291;139799;-84
2023/10/19 11:34:56;;;;;;;55.80;29.00;;;;;;;9.42;82.71;99146.19;214211;1288;138755;-85
2023/10/19 11:39:56;;;;;;;47.20;23.60;;;;;;;9.44;83.06;99143.60;213880;1288;141119;-86
2023/10/19 11:44:57;;;;;;;27.00;15.30;;;;;;;9.48;83.42;99139.11;214336;1288;138906;-84
2023/10/19 11:49:58;;;;;;;28.10;16.30;;;;;;;9.50;83.68;99137.53;213649;1291;139708;-84
2023/10/19 11:54:59;;;;;;;30.30;16.10;;;;;;;9.49;83.91;99122.00;215043;1288;138711;-87
2023/10/19 11:59:59;;;;;;;35.00;15.90;;;;;;;9.50;83.80;99125.28;214775;1286;139664;-84
2023/10/19 12:05:01;;;;;;;29.50;15.80;;;;;;;9.52;83.92;99115.30;214232;1292;138452;-85
2023/10/19 12:10:03;;;;;;;29.20;15.80;;;;;;;9.54;83.66;99108.70;213770;1291;140380;-86
2023/10/19 12:15:05;;;;;;;27.70;15.60;;;;;;;9.55;83.30;99101.95;214543;1288;138577;-87
2023/10/19 12:20:06;;;;;;;30.20;16.20;;;;;;;9.55;83.46;99098.02;214083;1292;139523;-86
2023/10/19 12:25:07;;;;;;;31.70;15.70;;;;;;;9.58;83.25;99095.41;214678;1291;138608;-86
2023/10/19 12:30:21;;;;;;;27.60;14.70;;;;;;;9.61;83.27;99090.07;214280;1289;139789;-85
2023/10/19 12:35:30;;;;;;;25.60;15.70;;;;;;;9.61;82.80;99083.48;214787;1289;105981;-87
2023/10/19 12:40:35;;;;;;;32.70;16.10;;;;;;;9.66;83.38;99073.39;214021;1291;140449;-88
2023/10/19 12:45:36;;;;;;;27.00;14.90;;;;;;;9.72;83.91;99074.14;214095;1291;138356;-87
2023/10/19 12:50:38;;;;;;;27.80;15.00;;;;;;;9.79;83.20;99070.38;213790;1291;139507;-87
2023/10/19 12:55:40;;;;;;;29.00;15.50;;;;;;;9.84;83.48;99067.75;214328;1291;138543;-87
2023/10/19 13:00:40;;;;;;;27.20;15.20;;;;;;;9.89;83.27;99068.50;213533;1289;139498;-87
2023/10/19 13:05:41;;;;;;;29.20;16.00;;;;;;;9.89;82.46;99064.74;214328;1289;96622;-86
2023/10/19 13:10:43;;;;;;;29.00;16.00;;;;;;;9.86;82.44;99045.15;213845;1289;139094;-86
2023/10/19 13:15:45;;;;;;;33.10;17.50;;;;;;;9.89;82.74;99034.59;214384;1289;138182;-85
2023/10/19 13:20:48;;;;;;;30.80;16.80;;;;;;;9.86;82.41;99035.87;214515;1291;139306;-87
2023/10/19 13:25:57;;;;;;;30.70;17.40;;;;;;;9.84;82.54;99036.84;214109;1291;139331;-87
2023/10/19 13:30:58;;;;;;;31.40;16.30;;;;;;;9.80;81.95;99041.58;213490;1287;140286;-86
2023/10/19 13:35:58;;;;;;;29.60;17.00;;;;;;;9.74;82.57;99032.20;214445;1291;97449;-87
2023/10/19 13:40:59;;;;;;;28.20;16.00;;;;;;;9.71;82.81;99025.64;213808;1291;140320;-86
2023/10/19 13:46:01;;;;;;;36.90;16.80;;;;;;;9.68;83.37;99025.27;214576;1289;138167;-86
2023/10/19 13:51:12;;;;;;;32.20;17.00;;;;;;;9.68;83.74;99017.19;213719;1291;140745;-87
2023/10/19 13:56:14;;;;;;;28.90;16.90;;;;;;;9.70;83.66;99021.71;214382;1288;138348;-88
2023/10/19 14:01:15;;;;;;;27.40;16.80;;;;;;;9.71;83.77;99016.21;213843;1291;139255;-88
2023/10/19 14:06:16;;;;;;;30.70;17.70;;;;;;;9.66;83.74;99007.30;214175;1291;139556;-88
2023/10/19 14:11:17;;;;;;;51.30;29.60;;;;;;;9.61;83.89;99004.38;213617;1290;139469;-88
2023/10/19 14:16:17;;;;;;;35.30;21.50;;;;;;;9.54;84.02;98997.83;214372;1301;139081;-87
2023/10/19 14:21:23;;;;;;;29.20;16.60;;;;;;;9.49;84.31;98990.27;213843;1288;139572;-85
2023/10/19 14:26:23;;;;;;;30.10;19.30;;;;;;;9.44;84.44;98992.11;214155;1288;139177;-87
2023/10/19 14:31:24;;;;;;;34.00;17.80;;;;;;;9.40;84.98;99008.06;213806;1291;139658;-87
2023/10/19 14:36:24;;;;;;;44.00;24.40;;;;;;;9.38;85.49;99010.35;214876;1292;138670;-87
2023/10/19 14:41:25;;;;;;;33.50;19.10;;;;;;;9.31;85.59;99003.17;213957;1292;227231;-86
2023/10/19 14:46:27;;;;;;;39.90;21.10;;;;;;;9.28;85.75;99000.61;214578;1292;138388;-86
2023/10/19 14:51:27;;;;;;;39.30;20.20;;;;;;;9.20;85.77;99004.98;213699;1292;139427;-85
2023/10/19 14:56:28;;;;;;;35.50;19.60;;;;;;;9.13;86.18;99007.69;214234;1291;138925;-87
2023/10/19 15:01:29;;;;;;;38.00;20.80;;;;;;;9.12;86.48;99006.05;213954;1292;139314;-87
2023/10/19 15:06:31;;;;;;;37.50;21.90;;;;;;;9.11;86.75;98994.05;214316;1286;139230;-87
2023/10/19 15:11:31;;;;;;;45.10;23.50;;;;;;;9.06;87.02;99002.16;214256;1292;139588;-88
2023/10/19 15:16:32;;;;;;;39.90;22.20;;;;;;;9.01;87.69;98988.77;214509;1290;138755;-88
2023/10/19 15:21:32;;;;;;;50.50;24.50;;;;;;;8.92;88.48;98982.64;214064;1292;139708;-86
2023/10/19 15:26:33;;;;;;;46.20;24.30;;;;;;;8.86;89.09;98972.80;214736;1288;138979;-86
2023/10/19 15:31:33;;;;;;;41.40;23.20;;;;;;;8.78;89.69;98972.30;214068;1292;140570;-86
2023/10/19 15:36:33;;;;;;;43.60;25.40;;;;;;;8.71;90.69;98979.15;214719;1288;138437;-87
2023/10/19 15:41:34;;;;;;;43.50;23.40;;;;;;;8.64;91.52;98986.63;213886;1288;139820;-87
2023/10/19 15:46:39;;;;;;;41.20;22.30;;;;;;;8.61;91.92;98990.23;214781;1288;138336;-86
2023/10/19 15:51:39;;;;;;;45.30;24.00;;;;;;;8.56;92.13;98985.88;214304;1291;139953;-87
2023/10/19 15:56:39;;;;;;;40.80;21.90;;;;;;;8.50;92.41;98983.55;214771;1288;140425;-87
2023/10/19 16:01:40;;;;;;;52.00;24.80;;;;;;;8.49;92.54;98972.81;214143;1288;139418;-87
2023/10/19 16:06:40;;;;;;;41.40;23.80;;;;;;;8.44;92.94;98972.69;215488;1288;138505;-86
2023/10/19 16:11:41;;;;;;;43.00;24.60;;;;;;;8.43;92.66;98989.68;214179;1288;231938;-86
2023/10/19 16:16:41;;;;;;;46.20;24.00;;;;;;;8.41;92.10;98985.69;214554;1292;139022;-87
2023/10/19 16:21:42;;;;;;;43.10;23.70;;;;;;;8.39;92.41;98989.30;213971;1289;144417;-86
2023/10/19 16:26:44;;;;;;;42.70;24.60;;;;;;;8.39;92.37;98994.57;214466;1289;139720;-88
2023/10/19 16:31:47;;;;;;;47.30;24.70;;;;;;;8.38;92.63;98990.41;214558;1289;139303;-88
2023/10/19 16:36:48;;;;;;;45.00;24.90;;;;;;;8.35;92.95;98986.51;214308;1289;138485;-89
2023/10/19 16:41:50;;;;;;;49.50;23.60;;;;;;;8.32;93.36;98988.55;213851;1289;140531;-88
2023/10/19 16:46:51;;;;;;;41.80;23.00;;;;;;;8.26;93.96;98989.34;214259;1291;138406;-88
2023/10/19 16:51:51;;;;;;;44.00;26.50;;;;;;;8.22;94.65;98985.59;214140;1291;139281;-88
2023/10/19 16:56:52;;;;;;;42.60;24.20;;;;;;;8.18;95.72;98972.36;214758;1291;139170;-88
2023/10/19 17:01:52;;;;;;;45.40;24.50;;;;;;;8.12;96.41;98969.30;214163;1288;139509;-88
2023/10/19 17:06:53;;;;;;;42.60;23.80;;;;;;;8.07;97.13;98975.42;214925;1289;139676;-89
2023/10/19 17:11:53;;;;;;;42.50;24.80;;;;;;;8.02;97.59;98977.25;214376;1288;140591;-87
2023/10/19 17:16:55;;;;;;;40.30;22.10;;;;;;;7.98;97.54;98977.48;214839;1291;138369;-89
2023/10/19 17:21:57;;;;;;;39.20;22.60;;;;;;;7.95;97.64;98976.23;213771;1296;139720;-87
2023/10/19 17:26:58;;;;;;;43.80;23.60;;;;;;;7.92;97.24;98964.19;214679;1288;138307;-89
2023/10/19 17:31:59;;;;;;;48.30;26.20;;;;;;;7.90;97.01;98954.02;215126;1289;140183;-88
2023/10/19 17:37:00;;;;;;;42.00;22.90;;;;;;;7.90;97.09;98956.07;214217;1291;138469;-86
2023/10/19 17:42:00;;;;;;;44.50;25.70;;;;;;;7.90;96.93;98953.16;213663;1291;139446;-88
2023/10/19 17:47:01;;;;;;;39.90;24.50;;;;;;;7.90;96.88;98950.97;214218;1291;138636;-88
2023/10/19 17:52:01;;;;;;;41.50;24.60;;;;;;;7.90;97.15;98948.70;213662;1288;140004;-90
2023/10/19 17:57:02;;;;;;;42.20;24.40;;;;;;;7.87;97.70;98957.16;214276;1289;138311;-87
2023/10/19 18:02:04;;;;;;;43.50;24.00;;;;;;;7.84;98.99;98954.50;213726;1288;139428;-87
2023/10/19 18:07:07;;;;;;;45.00;25.40;;;;;;;7.78;99.93;98959.91;214302;1289;138363;-88
2023/10/19 18:12:08;;;;;;;38.60;23.50;;;;;;;7.67;100.00;98957.96;213712;1291;139779;-85
2023/10/19 18:17:11;;;;;;;43.50;24.90;;;;;;;7.55;100.00;98952.66;214165;1291;96640;-88
2023/10/19 18:22:11;;;;;;;44.50;25.90;;;;;;;7.46;100.00;98950.09;213551;1288;140264;-88
2023/10/19 18:27:12;;;;;;;50.10;26.80;;;;;;;7.40;100.00;98952.36;214223;1288;139364;-87
2023/10/19 18:32:12;;;;;;;45.60;25.60;;;;;;;7.37;100.00;98956.80;213988;1291;140702;-88
2023/10/19 18:37:14;;;;;;;47.80;26.40;;;;;;;7.31;100.00;98960.24;214364;1289;139791;-89
2023/10/19 18:42:14;;;;;;;45.50;25.90;;;;;;;7.27;100.00;98958.53;213912;1286;140188;-88
2023/10/19 18:47:15;;;;;;;44.20;26.00;;;;;;;7.27;100.00;98943.75;214695;1290;97563;-87
2023/10/19 18:52:15;;;;;;;46.00;25.90;;;;;;;7.22;100.00;98935.77;214489;1286;284578;-88
2023/10/19 18:57:15;;;;;;;46.70;25.90;;;;;;;7.19;100.00;98933.98;214566;1288;138733;-88
2023/10/19 19:02:16;;;;;;;46.00;25.70;;;;;;;7.16;100.00;98930.92;213729;1287;139553;-88
2023/10/19 19:07:17;;;;;;;44.80;26.60;;;;;;;7.13;100.00;98931.23;214195;1288;138588;-88
2023/10/19 19:12:18;;;;;;;50.60;27.10;;;;;;;7.13;100.00;98919.27;213789;1288;140725;-87
2023/10/19 19:17:18;;;;;;;47.80;27.80;;;;;;;7.11;100.00;98909.43;214967;1288;97172;-89
2023/10/19 19:22:19;;;;;;;49.50;29.60;;;;;;;7.10;100.00;98908.64;213944;1288;139481;-87
2023/10/19 19:27:19;;;;;;;50.40;29.70;;;;;;;7.10;100.00;98900.45;214601;1291;138927;-89
2023/10/19 19:32:19;;;;;;;58.40;30.00;;;;;;;7.10;100.00;98904.97;213538;1289;139662;-89
2023/10/19 19:37:21;;;;;;;54.90;30.00;;;;;;;7.10;100.00;98905.83;214462;1288;138686;-87
2023/10/19 19:42:22;;;;;;;53.50;29.00;;;;;;;7.10;100.00;98898.95;214152;1288;141540;-87
2023/10/19 19:47:23;;;;;;;53.90;29.70;;;;;;;7.09;100.00;98903.41;214544;1291;97230;-88
2023/10/19 19:52:23;;;;;;;53.10;31.70;;;;;;;7.09;100.00;98910.59;213924;1291;139544;-88
2023/10/19 19:57:24;;;;;;;52.20;29.70;;;;;;;7.09;100.00;98912.08;214526;1286;138559;-88
2023/10/19 20:02:24;;;;;;;54.80;32.90;;;;;;;7.09;100.00;98915.44;213820;1286;140010;-88
2023/10/19 20:07:24;;;;;;;53.60;31.30;;;;;;;7.07;100.00;98908.25;214623;1290;138792;-88
2023/10/19 20:12:25;;;;;;;56.80;33.10;;;;;;;7.05;100.00;98899.89;214163;1289;139649;-88
2023/10/19 20:17:25;;;;;;;50.30;30.30;;;;;;;7.06;100.00;98891.14;215679;1286;96607;-88
2023/10/19 20:22:26;;;;;;;52.20;31.60;;;;;;;7.05;100.00;98886.20;213954;1289;140341;-88
2023/10/19 20:27:26;;;;;;;52.00;31.20;;;;;;;7.06;100.00;98879.03;214536;1288;138514;-88
2023/10/19 20:32:27;;;;;;;45.90;29.70;;;;;;;7.07;100.00;98870.34;214166;1288;140446;-89
2023/10/19 20:37:27;;;;;;;49.80;31.30;;;;;;;7.09;100.00;98865.98;214642;1288;139056;-88
2023/10/19 20:42:30;;;;;;;48.80;30.00;;;;;;;7.09;100.00;98857.61;213947;1286;139813;-89
2023/10/19 20:47:30;;;;;;;43.90;28.90;;;;;;;7.10;100.00;98857.69;214666;1286;96589;-87
2023/10/19 20:52:31;;;;;;;43.60;28.40;;;;;;;7.10;100.00;98862.30;214360;1290;139652;-88
2023/10/19 20:57:31;;;;;;;43.10;28.90;;;;;;;7.11;100.00;98854.25;214613;1288;138622;-89
2023/10/19 21:02:33;;;;;;;46.40;30.10;;;;;;;7.10;100.00;98840.34;214049;1288;139682;-89
2023/10/19 21:07:33;;;;;;;44.30;29.40;;;;;;;7.13;100.00;98824.48;214547;1288;138490;-89
2023/10/19 21:12:34;;;;;;;48.30;31.30;;;;;;;7.11;100.00;98811.04;213672;1288;139878;-89
2023/10/19 21:17:34;;;;;;;50.30;32.20;;;;;;;7.11;100.00;98799.08;214519;1290;97537;-89
2023/10/19 21:22:35;;;;;;;51.80;31.40;;;;;;;7.11;100.00;98798.92;213910;1288;139399;-89
2023/10/19 21:27:36;;;;;;;56.80;34.20;;;;;;;7.09;100.00;98791.64;214527;1291;138985;-90
2023/10/19 21:32:42;;;;;;;55.20;34.00;;;;;;;7.08;100.00;98793.99;214706;1287;139774;-88
2023/10/19 21:37:42;;;;;;;51.70;32.20;;;;;;;7.09;100.00;98794.94;215140;1286;139824;-89
2023/10/19 21:42:44;;;;;;;56.60;34.60;;;;;;;7.07;100.00;98794.23;214439;1288;139764;-88
2023/10/19 21:47:45;;;;;;;51.90;32.00;;;;;;;7.05;100.00;98789.31;214968;1288;97949;-86
2023/10/19 21:52:45;;;;;;;55.30;36.10;;;;;;;7.07;100.00;98787.13;213963;1288;140094;-88
2023/10/19 21:57:46;;;;;;;49.00;31.30;;;;;;;7.05;100.00;98787.52;214354;1288;138590;-87
2023/10/19 22:02:46;;;;;;;51.90;32.20;;;;;;;7.04;100.00;98798.05;213966;1290;140266;-86
2023/10/19 22:07:47;;;;;;;52.70;32.20;;;;;;;7.04;100.00;98799.93;214528;1289;138676;-87
2023/10/19 22:12:48;;;;;;;45.50;28.50;;;;;;;7.05;100.00;98808.85;213864;1288;139730;-86
2023/10/19 22:17:48;;;;;;;47.50;31.50;;;;;;;7.05;100.00;98808.70;214358;1288;96721;-86
2023/10/19 22:22:49;;;;;;;46.80;29.70;;;;;;;7.08;100.00;98807.91;213670;1288;139656;-86
2023/10/19 22:27:52;;;;;;;47.30;27.50;;;;;;;7.08;100.00;98800.78;214185;1288;138330;-85
2023/10/19 22:32:54;;;;;;;44.40;28.50;;;;;;;7.06;100.00;98789.39;213627;1288;139450;-87
2023/10/19 22:37:55;;;;;;;46.30;26.70;;;;;;;7.04;100.00;98787.44;214304;1286;138658;-86
2023/10/19 22:42:56;;;;;;;40.10;26.20;;;;;;;7.02;100.00;98783.54;213702;1291;139998;-86
2023/10/19 22:47:57;;;;;;;41.80;27.20;;;;;;;7.01;100.00;98786.20;214613;1288;96616;-85
2023/10/19 22:52:57;;;;;;;34.40;22.70;;;;;;;7.01;100.00;98782.20;216870;1288;139196;-86
2023/10/19 22:57:58;;;;;;;42.80;25.80;;;;;;;6.98;100.00;98780.96;218593;1287;138471;-87